sensor_id;sensor_type;location;lat;lon;timestamp;pressure;altitude;pressure_sealevel;temperature;humidity
23016;BME280;11674;52.428;13.584;2022-10-13T00:02:22;101942.06;;;9.39;61.56
23016;BME280;11674;52.428;13.584;2022-10-13T00:04:55;101939.56;;;9.38;61.57
23016;BME280;11674;52.428;13.584;2022-10-13T00:07:27;101940.66;;;9.37;61.63
23016;BME280;11674;52.428;13.584;2022-10-13T00:09:59;101930.09;;;9.34;61.70
23016;BME280;11674;52.428;13.584;2022-10-13T00:12:33;101937.81;;;9.32;61.78
23016;BME280;11674;52.428;13.584;2022-10-13T00:15:08;101928.91;;;9.30;61.74
23016;BME280;11674;52.428;13.584;2022-10-13T00:17:41;101915.00;;;9.25;61.82
23016;BME280;11674;52.428;13.584;2022-10-13T00:20:13;101928.28;;;9.23;61.71
23016;BME280;11674;52.428;13.584;2022-10-13T00:22:45;101925.13;;;9.19;61.86
23016;BME280;11674;52.428;13.584;2022-10-13T00:25:17;101932.03;;;9.17;61.92
23016;BME280;11674;52.428;13.584;2022-10-13T00:27:49;101924.00;;;9.15;61.90
23016;BME280;11674;52.428;13.584;2022-10-13T00:30:25;101928.69;;;9.15;61.89
23016;BME280;11674;52.428;13.584;2022-10-13T00:32:58;101920.91;;;9.12;61.99
23016;BME280;11674;52.428;13.584;2022-10-13T00:35:30;101923.06;;;9.10;61.93
23016;BME280;11674;52.428;13.584;2022-10-13T00:38:02;101920.53;;;9.08;61.99
23016;BME280;11674;52.428;13.584;2022-10-13T00:40:51;101908.88;;;9.06;62.12
23016;BME280;11674;52.428;13.584;2022-10-13T00:43:27;101909.75;;;9.07;62.13
23016;BME280;11674;52.428;13.584;2022-10-13T00:46:18;101915.53;;;9.05;62.04
23016;BME280;11674;52.428;13.584;2022-10-13T00:49:01;101911.31;;;9.03;61.92
23016;BME280;11674;52.428;13.584;2022-10-13T00:51:39;101915.19;;;9.02;62.06
23016;BME280;11674;52.428;13.584;2022-10-13T00:54:15;101917.34;;;9.00;62.13
23016;BME280;11674;52.428;13.584;2022-10-13T00:56:48;101914.25;;;8.96;62.20
23016;BME280;11674;52.428;13.584;2022-10-13T00:59:24;101910.06;;;8.94;62.26
23016;BME280;11674;52.428;13.584;2022-10-13T01:01:58;101920.56;;;8.92;62.22
23016;BME280;11674;52.428;13.584;2022-10-13T01:04:33;101913.25;;;8.86;62.31
23016;BME280;11674;52.428;13.584;2022-10-13T01:07:07;101917.03;;;8.80;62.34
23016;BME280;11674;52.428;13.584;2022-10-13T01:09:40;101914.19;;;8.75;62.33
23016;BME280;11674;52.428;13.584;2022-10-13T01:18:33;101906.19;;;8.62;62.59
23016;BME280;11674;52.428;13.584;2022-10-13T01:30:07;101905.50;;;8.55;62.55
23016;BME280;11674;52.428;13.584;2022-10-13T01:41:13;101888.59;;;8.51;62.57
23016;BME280;11674;52.428;13.584;2022-10-13T01:44:02;101891.59;;;8.50;62.73
23016;BME280;11674;52.428;13.584;2022-10-13T01:46:39;101886.06;;;8.50;62.75
23016;BME280;11674;52.428;13.584;2022-10-13T01:49:14;101887.16;;;8.49;62.81
23016;BME280;11674;52.428;13.584;2022-10-13T01:51:48;101878.00;;;8.48;62.74
23016;BME280;11674;52.428;13.584;2022-10-13T01:54:21;101880.78;;;8.48;62.87
23016;BME280;11674;52.428;13.584;2022-10-13T01:56:55;101886.63;;;8.52;62.92
23016;BME280;11674;52.428;13.584;2022-10-13T01:59:28;101872.31;;;8.55;63.08
23016;BME280;11674;52.428;13.584;2022-10-13T02:03:19;101872.19;;;8.61;63.34
23016;BME280;11674;52.428;13.584;2022-10-13T02:05:30;101869.81;;;8.70;63.33
23016;BME280;11674;52.428;13.584;2022-10-13T02:08:22;101857.50;;;8.77;63.26
23016;BME280;11674;52.428;13.584;2022-10-13T02:11:02;101866.47;;;8.84;63.37
23016;BME280;11674;52.428;13.584;2022-10-13T02:13:41;101861.84;;;8.90;63.27
23016;BME280;11674;52.428;13.584;2022-10-13T02:16:21;101862.44;;;8.92;63.41
23016;BME280;11674;52.428;13.584;2022-10-13T02:18:55;101853.28;;;8.91;63.51
23016;BME280;11674;52.428;13.584;2022-10-13T02:21:21;101862.44;;;8.92;63.42
23016;BME280;11674;52.428;13.584;2022-10-13T02:23:53;101848.38;;;8.93;63.55
23016;BME280;11674;52.428;13.584;2022-10-13T02:26:25;101851.47;;;8.97;63.53
23016;BME280;11674;52.428;13.584;2022-10-13T02:28:59;101849.84;;;9.01;63.60
23016;BME280;11674;52.428;13.584;2022-10-13T02:31:37;101852.69;;;9.06;63.47
23016;BME280;11674;52.428;13.584;2022-10-13T02:34:10;101850.84;;;9.11;63.41
23016;BME280;11674;52.428;13.584;2022-10-13T02:36:44;101850.31;;;9.14;63.62
23016;BME280;11674;52.428;13.584;2022-10-13T02:39:17;101848.97;;;9.17;63.56
23016;BME280;11674;52.428;13.584;2022-10-13T02:41:49;101849.25;;;9.15;63.54
23016;BME280;11674;52.428;13.584;2022-10-13T02:44:21;101841.75;;;9.16;63.65
23016;BME280;11674;52.428;13.584;2022-10-13T02:46:53;101841.53;;;9.17;63.63
23016;BME280;11674;52.428;13.584;2022-10-13T02:49:25;101841.53;;;9.17;63.54
23016;BME280;11674;52.428;13.584;2022-10-13T02:51:57;101830.69;;;9.16;63.59
23016;BME280;11674;52.428;13.584;2022-10-13T02:54:29;101825.94;;;9.11;63.50
23016;BME280;11674;52.428;13.584;2022-10-13T02:57:01;101829.47;;;9.07;63.60
23016;BME280;11674;52.428;13.584;2022-10-13T02:59:33;101815.56;;;9.02;63.72
23016;BME280;11674;52.428;13.584;2022-10-13T03:02:05;101811.63;;;8.98;63.71
23016;BME280;11674;52.428;13.584;2022-10-13T03:04:37;101818.50;;;8.95;63.66
23016;BME280;11674;52.428;13.584;2022-10-13T03:07:09;101822.84;;;8.91;63.72
23016;BME280;11674;52.428;13.584;2022-10-13T03:09:41;101825.31;;;8.88;63.79
23016;BME280;11674;52.428;13.584;2022-10-13T03:12:13;101820.25;;;8.85;63.95
23016;BME280;11674;52.428;13.584;2022-10-13T03:14:45;101823.56;;;8.82;63.86
23016;BME280;11674;52.428;13.584;2022-10-13T03:17:17;101823.78;;;8.80;63.99
23016;BME280;11674;52.428;13.584;2022-10-13T03:19:49;101815.75;;;8.79;63.86
23016;BME280;11674;52.428;13.584;2022-10-13T03:22:21;101813.25;;;8.77;64.00
23016;BME280;11674;52.428;13.584;2022-10-13T03:24:53;101809.31;;;8.73;63.97
23016;BME280;11674;52.428;13.584;2022-10-13T03:27:25;101802.59;;;8.69;64.02
23016;BME280;11674;52.428;13.584;2022-10-13T03:29:57;101800.31;;;8.66;64.16
23016;BME280;11674;52.428;13.584;2022-10-13T03:32:31;101805.53;;;8.63;64.22
23016;BME280;11674;52.428;13.584;2022-10-13T03:35:10;101798.56;;;8.60;64.16
23016;BME280;11674;52.428;13.584;2022-10-13T03:37:42;101807.13;;;8.59;64.23
23016;BME280;11674;52.428;13.584;2022-10-13T03:40:14;101795.47;;;8.57;64.26
23016;BME280;11674;52.428;13.584;2022-10-13T03:42:46;101808.47;;;8.56;64.39
23016;BME280;11674;52.428;13.584;2022-10-13T03:45:18;101798.75;;;8.54;64.37
23016;BME280;11674;52.428;13.584;2022-10-13T03:47:44;101807.06;;;8.54;64.41
23016;BME280;11674;52.428;13.584;2022-10-13T03:50:16;101800.09;;;8.51;64.49
23016;BME280;11674;52.428;13.584;2022-10-13T03:52:48;101795.91;;;8.49;64.53
23016;BME280;11674;52.428;13.584;2022-10-13T03:55:20;101795.91;;;8.49;64.38
23016;BME280;11674;52.428;13.584;2022-10-13T03:57:45;101794.25;;;8.48;64.47
23016;BME280;11674;52.428;13.584;2022-10-13T04:00:17;101793.88;;;8.44;64.45
23016;BME280;11674;52.428;13.584;2022-10-13T04:02:49;101799.69;;;8.43;64.50
23016;BME280;11674;52.428;13.584;2022-10-13T04:05:21;101793.31;;;8.42;64.70
23016;BME280;11674;52.428;13.584;2022-10-13T04:07:53;101796.31;;;8.41;64.66
23016;BME280;11674;52.428;13.584;2022-10-13T04:10:23;101796.31;;;8.41;64.61
23016;BME280;11674;52.428;13.584;2022-10-13T04:12:55;101791.88;;;8.40;64.62
23016;BME280;11674;52.428;13.584;2022-10-13T04:15:27;101809.03;;;8.42;64.76
23016;BME280;11674;52.428;13.584;2022-10-13T04:17:59;101805.22;;;8.43;64.71
23016;BME280;11674;52.428;13.584;2022-10-13T04:20:24;101793.53;;;8.41;64.89
23016;BME280;11674;52.428;13.584;2022-10-13T04:22:56;101787.78;;;8.42;64.96
23016;BME280;11674;52.428;13.584;2022-10-13T04:25:28;101777.91;;;8.46;64.87
23016;BME280;11674;52.428;13.584;2022-10-13T04:28:00;101788.72;;;8.48;64.93
23016;BME280;11674;52.428;13.584;2022-10-13T04:30:35;101775.69;;;8.48;65.03
23016;BME280;11674;52.428;13.584;2022-10-13T04:33:07;101780.75;;;8.51;65.18
23016;BME280;11674;52.428;13.584;2022-10-13T04:35:40;101783.00;;;8.54;65.25
23016;BME280;11674;52.428;13.584;2022-10-13T04:38:05;101768.91;;;8.56;65.30
23016;BME280;11674;52.428;13.584;2022-10-13T04:40:38;101772.25;;;8.58;65.31
23016;BME280;11674;52.428;13.584;2022-10-13T04:43:10;101776.97;;;8.57;65.36
23016;BME280;11674;52.428;13.584;2022-10-13T04:45:42;101775.63;;;8.60;65.43
23016;BME280;11674;52.428;13.584;2022-10-13T04:48:07;101774.84;;;8.64;65.47
23016;BME280;11674;52.428;13.584;2022-10-13T04:50:39;101763.03;;;8.69;65.45
23016;BME280;11674;52.428;13.584;2022-10-13T04:53:11;101771.94;;;8.71;65.50
23016;BME280;11674;52.428;13.584;2022-10-13T04:55:43;101764.81;;;8.75;65.55
23016;BME280;11674;52.428;13.584;2022-10-13T04:58:08;101762.34;;;8.78;65.50
23016;BME280;11674;52.428;13.584;2022-10-13T05:00:40;101769.31;;;8.81;65.59
23016;BME280;11674;52.428;13.584;2022-10-13T05:03:16;101767.97;;;8.83;65.51
23016;BME280;11674;52.428;13.584;2022-10-13T05:05:48;101762.50;;;8.88;65.55
23016;BME280;11674;52.428;13.584;2022-10-13T05:08:20;101759.47;;;8.90;65.58
23016;BME280;11674;52.428;13.584;2022-10-13T05:11:00;101760.31;;;8.90;65.78
23016;BME280;11674;52.428;13.584;2022-10-13T05:13:32;101761.97;;;8.91;65.67
23016;BME280;11674;52.428;13.584;2022-10-13T05:16:09;101753.44;;;8.93;65.76
23016;BME280;11674;52.428;13.584;2022-10-13T05:18:41;101765.94;;;8.95;65.70
23016;BME280;11674;52.428;13.584;2022-10-13T05:21:16;101765.41;;;8.98;65.78
23016;BME280;11674;52.428;13.584;2022-10-13T05:23:48;101757.69;;;9.00;65.75
23016;BME280;11674;52.428;13.584;2022-10-13T05:26:22;101755.50;;;9.02;65.79
23016;BME280;11674;52.428;13.584;2022-10-13T05:28:58;101759.44;;;9.06;66.00
23016;BME280;11674;52.428;13.584;2022-10-13T05:31:32;101757.00;;;9.10;65.85
23016;BME280;11674;52.428;13.584;2022-10-13T05:34:04;101758.16;;;9.14;65.84
23016;BME280;11674;52.428;13.584;2022-10-13T05:36:36;101755.72;;;9.17;65.81
23016;BME280;11674;52.428;13.584;2022-10-13T05:39:08;101750.50;;;9.21;65.83
23016;BME280;11674;52.428;13.584;2022-10-13T05:41:41;101747.78;;;9.26;65.92
23016;BME280;11674;52.428;13.584;2022-10-13T05:44:19;101750.63;;;9.31;65.87
23016;BME280;11674;52.428;13.584;2022-10-13T05:46:54;101745.41;;;9.34;65.92
23016;BME280;11674;52.428;13.584;2022-10-13T05:49:27;101750.69;;;9.36;66.04
23016;BME280;11674;52.428;13.584;2022-10-13T05:52:01;101747.41;;;9.39;65.98
23016;BME280;11674;52.428;13.584;2022-10-13T05:54:37;101748.03;;;9.46;66.12
23016;BME280;11674;52.428;13.584;2022-10-13T05:57:29;101745.34;;;9.51;66.18
23016;BME280;11674;52.428;13.584;2022-10-13T06:00:08;101746.75;;;9.53;66.19
23016;BME280;11674;52.428;13.584;2022-10-13T06:03:14;101745.47;;;9.61;66.23
23016;BME280;11674;52.428;13.584;2022-10-13T06:05:47;101731.97;;;9.69;66.12
23016;BME280;11674;52.428;13.584;2022-10-13T06:08:19;101737.03;;;9.77;66.19
23016;BME280;11674;52.428;13.584;2022-10-13T06:10:51;101737.41;;;9.86;66.09
23016;BME280;11674;52.428;13.584;2022-10-13T06:13:23;101733.59;;;9.92;66.20
23016;BME280;11674;52.428;13.584;2022-10-13T06:15:55;101743.63;;;9.98;66.28
23016;BME280;11674;52.428;13.584;2022-10-13T06:18:27;101733.66;;;10.02;66.30
23016;BME280;11674;52.428;13.584;2022-10-13T06:20:59;101735.97;;;10.05;66.22
23016;BME280;11674;52.428;13.584;2022-10-13T06:23:31;101742.06;;;10.07;66.22
23016;BME280;11674;52.428;13.584;2022-10-13T06:26:05;101734.06;;;10.10;66.24
23016;BME280;11674;52.428;13.584;2022-10-13T06:28:38;101740.75;;;10.14;66.28
23016;BME280;11674;52.428;13.584;2022-10-13T06:31:10;101748.56;;;10.17;66.34
23016;BME280;11674;52.428;13.584;2022-10-13T06:33:42;101746.59;;;10.18;66.20
23016;BME280;11674;52.428;13.584;2022-10-13T06:36:14;101746.34;;;10.19;66.25
23016;BME280;11674;52.428;13.584;2022-10-13T06:38:46;101740.00;;;10.19;66.25
23016;BME280;11674;52.428;13.584;2022-10-13T06:41:19;101744.16;;;10.21;66.25
23016;BME280;11674;52.428;13.584;2022-10-13T06:43:51;101737.50;;;10.22;66.30
23016;BME280;11674;52.428;13.584;2022-10-13T06:46:23;101749.72;;;10.26;66.37
23016;BME280;11674;52.428;13.584;2022-10-13T06:48:55;101746.19;;;10.31;66.41
23016;BME280;11674;52.428;13.584;2022-10-13T06:51:27;101743.44;;;10.36;66.33
23016;BME280;11674;52.428;13.584;2022-10-13T06:54:00;101755.69;;;10.40;66.47
23016;BME280;11674;52.428;13.584;2022-10-13T06:56:32;101749.59;;;10.43;66.34
23016;BME280;11674;52.428;13.584;2022-10-13T06:59:09;101745.19;;;10.47;66.26
23016;BME280;11674;52.428;13.584;2022-10-13T07:01:44;101753.00;;;10.55;66.44
23016;BME280;11674;52.428;13.584;2022-10-13T07:04:16;101754.47;;;10.62;66.37
23016;BME280;11674;52.428;13.584;2022-10-13T07:06:48;101743.16;;;10.69;66.51
23016;BME280;11674;52.428;13.584;2022-10-13T07:09:20;101742.63;;;10.77;66.34
23016;BME280;11674;52.428;13.584;2022-10-13T07:11:52;101743.81;;;10.86;66.51
23016;BME280;11674;52.428;13.584;2022-10-13T07:14:24;101740.28;;;11.00;66.55
23016;BME280;11674;52.428;13.584;2022-10-13T07:16:56;101734.00;;;11.15;66.47
23016;BME280;11674;52.428;13.584;2022-10-13T07:19:28;101729.84;;;11.27;66.33
23016;BME280;11674;52.428;13.584;2022-10-13T07:22:00;101729.59;;;11.34;66.33
23016;BME280;11674;52.428;13.584;2022-10-13T07:24:32;101727.97;;;11.38;66.18
23016;BME280;11674;52.428;13.584;2022-10-13T07:27:04;101733.53;;;11.43;65.92
23016;BME280;11674;52.428;13.584;2022-10-13T07:29:36;101716.31;;;11.46;66.07
23016;BME280;11674;52.428;13.584;2022-10-13T07:32:08;101716.31;;;11.46;65.98
23016;BME280;11674;52.428;13.584;2022-10-13T07:34:40;101724.13;;;11.49;65.83
23016;BME280;11674;52.428;13.584;2022-10-13T07:37:12;101718.03;;;11.52;66.05
23016;BME280;11674;52.428;13.584;2022-10-13T07:39:44;101719.09;;;11.51;66.01
23016;BME280;11674;52.428;13.584;2022-10-13T07:42:16;101716.34;;;11.56;65.83
23016;BME280;11674;52.428;13.584;2022-10-13T07:44:48;101718.91;;;11.62;65.94
23016;BME280;11674;52.428;13.584;2022-10-13T07:47:20;101715.88;;;11.69;65.97
23016;BME280;11674;52.428;13.584;2022-10-13T07:49:52;101713.38;;;11.77;65.83
23016;BME280;11674;52.428;13.584;2022-10-13T07:52:24;101708.66;;;11.88;65.93
23016;BME280;11674;52.428;13.584;2022-10-13T07:54:56;101708.13;;;11.96;65.86
23016;BME280;11674;52.428;13.584;2022-10-13T07:57:28;101707.03;;;11.97;65.74
23016;BME280;11674;52.428;13.584;2022-10-13T08:00:00;101697.56;;;11.98;65.64
23016;BME280;11674;52.428;13.584;2022-10-13T08:02:37;101708.16;;;12.01;65.81
23016;BME280;11674;52.428;13.584;2022-10-13T08:05:09;101704.53;;;12.05;65.50
23016;BME280;11674;52.428;13.584;2022-10-13T08:07:41;101705.91;;;12.13;65.67
23016;BME280;11674;52.428;13.584;2022-10-13T08:10:13;101696.72;;;12.22;65.47
23016;BME280;11674;52.428;13.584;2022-10-13T08:12:45;101695.34;;;12.35;65.59
23016;BME280;11674;52.428;13.584;2022-10-13T08:15:17;101697.00;;;12.46;65.49
23016;BME280;11674;52.428;13.584;2022-10-13T08:17:49;101688.91;;;12.59;65.56
23016;BME280;11674;52.428;13.584;2022-10-13T08:20:23;101693.91;;;12.67;65.48
23016;BME280;11674;52.428;13.584;2022-10-13T08:22:55;101686.09;;;12.74;65.34
23016;BME280;11674;52.428;13.584;2022-10-13T08:25:27;101688.56;;;12.91;65.45
23016;BME280;11674;52.428;13.584;2022-10-13T08:27:59;101681.56;;;13.08;65.31
23016;BME280;11674;52.428;13.584;2022-10-13T08:30:24;101682.06;;;13.25;65.26
23016;BME280;11674;52.428;13.584;2022-10-13T08:32:56;101674.44;;;13.41;65.06
23016;BME280;11674;52.428;13.584;2022-10-13T08:35:21;101679.88;;;13.66;65.11
23016;BME280;11674;52.428;13.584;2022-10-13T08:37:53;101680.84;;;13.85;65.00
23016;BME280;11674;52.428;13.584;2022-10-13T08:40:19;101681.28;;;14.02;64.62
23016;BME280;11674;52.428;13.584;2022-10-13T08:42:52;101685.06;;;14.21;64.84
23016;BME280;11674;52.428;13.584;2022-10-13T08:45:25;101677.94;;;14.38;64.31
23016;BME280;11674;52.428;13.584;2022-10-13T08:48:00;101673.88;;;14.54;64.24
23016;BME280;11674;52.428;13.584;2022-10-13T08:50:35;101670.63;;;14.71;64.40
23016;BME280;11674;52.428;13.584;2022-10-13T08:56:23;101668.69;;;14.95;63.88
23016;BME280;11674;52.428;13.584;2022-10-13T08:58:53;101662.97;;;15.05;63.89
23016;BME280;11674;52.428;13.584;2022-10-13T09:01:35;101658.94;;;15.16;63.39
23016;BME280;11674;52.428;13.584;2022-10-13T09:07:13;101662.25;;;15.41;62.94
23016;BME280;11674;52.428;13.584;2022-10-13T09:09:50;101669.59;;;15.56;63.00
23016;BME280;11674;52.428;13.584;2022-10-13T09:12:23;101659.59;;;15.68;62.92
23016;BME280;11674;52.428;13.584;2022-10-13T09:15:16;101661.13;;;15.79;62.73
23016;BME280;11674;52.428;13.584;2022-10-13T09:18:07;101656.22;;;15.90;62.52
23016;BME280;11674;52.428;13.584;2022-10-13T09:20:40;101655.50;;;15.98;62.39
23016;BME280;11674;52.428;13.584;2022-10-13T09:23:18;101650.03;;;16.06;62.39
23016;BME280;11674;52.428;13.584;2022-10-13T09:25:51;101642.31;;;16.17;62.30
23016;BME280;11674;52.428;13.584;2022-10-13T09:28:28;101642.75;;;16.24;62.26
23016;BME280;11674;52.428;13.584;2022-10-13T09:31:34;101640.06;;;16.32;61.99
23016;BME280;11674;52.428;13.584;2022-10-13T09:39:32;101640.25;;;16.54;61.53
23016;BME280;11674;52.428;13.584;2022-10-13T09:42:26;101633.84;;;16.54;61.46
23016;BME280;11674;52.428;13.584;2022-10-13T09:45:08;101633.59;;;16.50;61.74
23016;BME280;11674;52.428;13.584;2022-10-13T09:47:49;101626.56;;;16.53;61.43
23016;BME280;11674;52.428;13.584;2022-10-13T09:50:30;101632.41;;;16.56;61.49
23016;BME280;11674;52.428;13.584;2022-10-13T09:53:38;101632.31;;;16.61;61.61
23016;BME280;11674;52.428;13.584;2022-10-13T10:01:46;101628.06;;;16.91;60.76
23016;BME280;11674;52.428;13.584;2022-10-13T10:04:21;101625.03;;;17.01;60.54
23016;BME280;11674;52.428;13.584;2022-10-13T10:06:54;101627.81;;;17.01;60.59
23016;BME280;11674;52.428;13.584;2022-10-13T10:11:59;101636.03;;;17.11;60.32
23016;BME280;11674;52.428;13.584;2022-10-13T10:14:36;101633.66;;;17.18;60.03
23016;BME280;11674;52.428;13.584;2022-10-13T10:19:46;101640.25;;;17.35;59.87
23016;BME280;11674;52.428;13.584;2022-10-13T10:22:35;101637.06;;;17.42;59.77
23016;BME280;11674;52.428;13.584;2022-10-13T10:28:17;101639.16;;;17.50;59.87
23016;BME280;11674;52.428;13.584;2022-10-13T10:31:20;101629.97;;;17.58;59.72
23016;BME280;11674;52.428;13.584;2022-10-13T10:36:53;101621.63;;;17.66;59.70
23016;BME280;11674;52.428;13.584;2022-10-13T10:39:45;101616.91;;;17.75;59.18
23016;BME280;11674;52.428;13.584;2022-10-13T10:44:57;101618.41;;;17.95;58.98
23016;BME280;11674;52.428;13.584;2022-10-13T10:47:43;101614.50;;;18.04;58.95
23016;BME280;11674;52.428;13.584;2022-10-13T10:50:18;101606.47;;;18.11;58.92
23016;BME280;11674;52.428;13.584;2022-10-13T10:52:52;101602.19;;;18.14;58.30
23016;BME280;11674;52.428;13.584;2022-10-13T10:58:18;101598.47;;;18.05;58.29
23016;BME280;11674;52.428;13.584;2022-10-13T11:08:48;101579.19;;;18.12;58.15
23016;BME280;11674;52.428;13.584;2022-10-13T11:19:33;101566.06;;;18.51;57.81
23016;BME280;11674;52.428;13.584;2022-10-13T11:46:05;101524.09;;;19.87;56.33
23016;BME280;11674;52.428;13.584;2022-10-13T11:54:39;101527.91;;;20.00;55.65
23016;BME280;11674;52.428;13.584;2022-10-13T11:57:18;101520.72;;;20.02;55.62
23016;BME280;11674;52.428;13.584;2022-10-13T11:59:52;101526.41;;;20.11;55.33
23016;BME280;11674;52.428;13.584;2022-10-13T12:02:51;101519.34;;;20.34;55.50
23016;BME280;11674;52.428;13.584;2022-10-13T12:05:25;101518.66;;;20.45;55.10
23016;BME280;11674;52.428;13.584;2022-10-13T12:08:02;101507.16;;;20.50;54.77
23016;BME280;11674;52.428;13.584;2022-10-13T12:10:35;101503.97;;;20.60;55.01
23016;BME280;11674;52.428;13.584;2022-10-13T12:13:18;101493.63;;;20.73;54.82
23016;BME280;11674;52.428;13.584;2022-10-13T12:16:02;101489.19;;;20.63;54.02
23016;BME280;11674;52.428;13.584;2022-10-13T12:18:39;101486.13;;;20.48;54.38
23016;BME280;11674;52.428;13.584;2022-10-13T12:21:19;101486.00;;;20.36;54.04
23016;BME280;11674;52.428;13.584;2022-10-13T12:24:06;101488.53;;;20.29;53.87
23016;BME280;11674;52.428;13.584;2022-10-13T12:26:38;101494.03;;;20.25;53.47
23016;BME280;11674;52.428;13.584;2022-10-13T12:29:12;101479.56;;;20.35;53.10
23016;BME280;11674;52.428;13.584;2022-10-13T12:31:46;101481.66;;;20.47;52.84
23016;BME280;11674;52.428;13.584;2022-10-13T12:34:27;101473.94;;;20.64;52.64
23016;BME280;11674;52.428;13.584;2022-10-13T12:37:17;101478.50;;;20.77;52.55
23016;BME280;11674;52.428;13.584;2022-10-13T12:39:52;101486.81;;;20.74;51.93
23016;BME280;11674;52.428;13.584;2022-10-13T12:42:28;101487.69;;;20.66;51.30
23016;BME280;11674;52.428;13.584;2022-10-13T12:45:01;101487.25;;;20.55;51.45
23016;BME280;11674;52.428;13.584;2022-10-13T12:47:48;101498.09;;;20.45;51.25
23016;BME280;11674;52.428;13.584;2022-10-13T12:52:54;101489.16;;;20.43;51.61
23016;BME280;11674;52.428;13.584;2022-10-13T12:55:27;101500.44;;;20.43;51.94
23016;BME280;11674;52.428;13.584;2022-10-13T12:57:59;101488.16;;;20.39;51.62
23016;BME280;11674;52.428;13.584;2022-10-13T13:00:31;101489.97;;;20.43;51.82
23016;BME280;11674;52.428;13.584;2022-10-13T13:03:05;101492.81;;;20.35;51.37
23016;BME280;11674;52.428;13.584;2022-10-13T13:05:39;101479.28;;;20.20;51.84
23016;BME280;11674;52.428;13.584;2022-10-13T13:08:28;101483.16;;;20.07;51.58
23016;BME280;11674;52.428;13.584;2022-10-13T13:11:05;101480.97;;;20.04;52.16
23016;BME280;11674;52.428;13.584;2022-10-13T13:13:37;101483.16;;;19.98;51.58
23016;BME280;11674;52.428;13.584;2022-10-13T13:16:20;101480.38;;;19.81;51.42
23016;BME280;11674;52.428;13.584;2022-10-13T13:18:52;101487.97;;;19.81;52.06
23016;BME280;11674;52.428;13.584;2022-10-13T13:21:18;101487.66;;;19.82;51.68
23016;BME280;11674;52.428;13.584;2022-10-13T13:23:50;101485.00;;;19.77;51.83
23016;BME280;11674;52.428;13.584;2022-10-13T13:26:22;101489.97;;;19.72;51.71
23016;BME280;11674;52.428;13.584;2022-10-13T13:28:55;101485.19;;;19.64;51.92
23016;BME280;11674;52.428;13.584;2022-10-13T13:31:27;101483.03;;;19.61;52.19
23016;BME280;11674;52.428;13.584;2022-10-13T13:33:59;101487.34;;;19.50;52.35
23016;BME280;11674;52.428;13.584;2022-10-13T13:36:31;101489.53;;;19.44;52.24
23016;BME280;11674;52.428;13.584;2022-10-13T13:39:05;101491.66;;;19.39;52.17
23016;BME280;11674;52.428;13.584;2022-10-13T13:41:37;101475.47;;;19.36;52.64
23016;BME280;11674;52.428;13.584;2022-10-13T13:44:09;101479.56;;;19.38;52.31
23016;BME280;11674;52.428;13.584;2022-10-13T13:46:42;101476.59;;;19.35;52.67
23016;BME280;11674;52.428;13.584;2022-10-13T13:49:14;101480.75;;;19.37;52.51
23016;BME280;11674;52.428;13.584;2022-10-13T13:51:46;101476.94;;;19.33;52.22
23016;BME280;11674;52.428;13.584;2022-10-13T13:54:18;101474.94;;;19.25;52.69
23016;BME280;11674;52.428;13.584;2022-10-13T13:56:50;101470.97;;;19.26;52.58
23016;BME280;11674;52.428;13.584;2022-10-13T13:59:23;101467.66;;;19.33;52.54
23016;BME280;11674;52.428;13.584;2022-10-13T14:01:55;101468.00;;;19.40;52.62
23016;BME280;11674;52.428;13.584;2022-10-13T14:04:31;101456.72;;;19.48;52.73
23016;BME280;11674;52.428;13.584;2022-10-13T14:07:03;101463.66;;;19.51;52.61
23016;BME280;11674;52.428;13.584;2022-10-13T14:09:35;101456.91;;;19.52;52.73
23016;BME280;11674;52.428;13.584;2022-10-13T14:12:08;101464.81;;;19.58;52.72
23016;BME280;11674;52.428;13.584;2022-10-13T14:14:47;101461.97;;;19.75;52.88
23016;BME280;11674;52.428;13.584;2022-10-13T14:17:20;101445.50;;;20.03;52.86
23016;BME280;11674;52.428;13.584;2022-10-13T14:19:53;101445.38;;;20.37;52.56
23016;BME280;11674;52.428;13.584;2022-10-13T14:22:25;101447.38;;;20.65;51.90
23016;BME280;11674;52.428;13.584;2022-10-13T14:24:57;101434.69;;;20.80;51.82
23016;BME280;11674;52.428;13.584;2022-10-13T14:27:22;101427.97;;;20.93;51.35
23016;BME280;11674;52.428;13.584;2022-10-13T14:29:54;101434.66;;;21.09;51.11
23016;BME280;11674;52.428;13.584;2022-10-13T14:32:26;101426.09;;;21.17;51.03
23016;BME280;11674;52.428;13.584;2022-10-13T14:34:58;101421.22;;;21.06;50.94
23016;BME280;11674;52.428;13.584;2022-10-13T14:37:30;101428.22;;;20.79;50.99
23016;BME280;11674;52.428;13.584;2022-10-13T14:40:02;101430.03;;;20.55;50.78
23016;BME280;11674;52.428;13.584;2022-10-13T14:42:34;101427.66;;;20.36;51.04
23016;BME280;11674;52.428;13.584;2022-10-13T14:45:12;101433.53;;;20.23;50.93
23016;BME280;11674;52.428;13.584;2022-10-13T14:47:44;101428.44;;;20.08;50.70
23016;BME280;11674;52.428;13.584;2022-10-13T14:50:16;101436.97;;;19.82;50.89
23016;BME280;11674;52.428;13.584;2022-10-13T14:52:53;101439.97;;;19.69;51.03
23016;BME280;11674;52.428;13.584;2022-10-13T14:55:26;101437.34;;;19.64;51.11
23016;BME280;11674;52.428;13.584;2022-10-13T14:57:58;101436.19;;;19.56;51.04
23016;BME280;11674;52.428;13.584;2022-10-13T15:00:30;101443.97;;;19.51;51.25
23016;BME280;11674;52.428;13.584;2022-10-13T15:03:05;101431.06;;;19.50;51.09
23016;BME280;11674;52.428;13.584;2022-10-13T15:05:37;101430.25;;;19.49;51.18
23016;BME280;11674;52.428;13.584;2022-10-13T15:08:09;101425.13;;;19.43;50.88
23016;BME280;11674;52.428;13.584;2022-10-13T15:10:41;101433.41;;;19.39;50.86